createdAt,value
2023-01-02T00:01:19.564Z,10.43
2023-01-02T00:03:46.771Z,10.54
2023-01-02T00:06:14.379Z,10.45
2023-01-02T00:08:41.622Z,10.53
2023-01-02T00:11:08.725Z,10.47
2023-01-02T00:13:36.709Z,10.51
2023-01-02T00:16:03.921Z,10.54
2023-01-02T00:18:30.948Z,10.56
2023-01-02T00:21:02.914Z,10.64
2023-01-02T00:23:30.022Z,10.67
2023-01-02T00:25:57.127Z,10.66
2023-01-02T00:28:24.173Z,10.74
2023-01-02T00:30:51.597Z,10.60
2023-01-02T00:33:18.651Z,10.60
2023-01-02T00:35:45.717Z,10.57
2023-01-02T00:38:12.813Z,10.53
2023-01-02T00:40:40.169Z,10.54
2023-01-02T00:43:07.901Z,10.52
2023-01-02T00:45:34.949Z,10.53
2023-01-02T00:48:01.973Z,10.51
2023-01-02T00:50:28.955Z,10.51
2023-01-02T00:52:56.102Z,10.50
2023-01-02T00:55:23.206Z,10.49
2023-01-02T00:57:50.207Z,10.48
2023-01-02T01:00:23.627Z,10.45
2023-01-02T01:02:56.225Z,10.45
2023-01-02T01:05:27.908Z,10.44
2023-01-02T01:07:56.253Z,10.42
2023-01-02T01:10:25.463Z,10.38
2023-01-02T01:12:52.800Z,10.40
2023-01-02T01:15:19.890Z,10.37
2023-01-02T01:17:47.068Z,10.40
2023-01-02T01:20:14.210Z,10.40
2023-01-02T01:22:41.203Z,10.42
2023-01-02T01:25:08.611Z,10.43
2023-01-02T01:27:35.980Z,10.47
2023-01-02T01:30:05.173Z,10.51
2023-01-02T01:32:32.216Z,10.48
2023-01-02T01:34:59.285Z,10.52
2023-01-02T01:37:26.319Z,10.55
2023-01-02T01:39:56.984Z,10.52
2023-01-02T01:42:24.320Z,10.56
2023-01-02T01:44:54.848Z,10.58
2023-01-02T01:47:36.748Z,10.59
2023-01-02T01:50:35.449Z,10.60
2023-01-02T01:53:14.368Z,10.62
2023-01-02T01:55:46.275Z,10.63
2023-01-02T01:58:23.768Z,10.67
2023-01-02T02:00:51.696Z,10.67
2023-01-02T02:03:22.814Z,10.67
2023-01-02T02:05:50.381Z,10.85
2023-01-02T02:08:55.610Z,10.88
2023-01-02T02:11:22.813Z,10.86
2023-01-02T02:13:50.840Z,10.92
2023-01-02T02:16:17.878Z,10.92
2023-01-02T02:18:56.255Z,10.89
2023-01-02T02:21:42.872Z,10.83
2023-01-02T02:24:24.958Z,10.79
2023-01-02T02:27:00.776Z,10.79
2023-01-02T02:29:27.741Z,10.76
2023-01-02T02:32:32.364Z,10.76
2023-01-02T02:35:03.381Z,10.76
2023-01-02T02:37:41.177Z,10.78
2023-01-02T02:40:29.460Z,10.75
2023-01-02T02:43:38.063Z,10.80
2023-01-02T02:46:33.147Z,10.81
2023-01-02T02:49:14.365Z,10.84
2023-01-02T02:51:53.145Z,10.93
2023-01-02T02:54:30.623Z,10.86
2023-01-02T02:56:59.719Z,10.87
2023-01-02T02:59:28.430Z,10.95
2023-01-02T03:01:56.210Z,10.95
2023-01-02T03:04:23.888Z,11.01
2023-01-02T03:07:24.844Z,11.02
2023-01-02T03:09:54.549Z,11.05
2023-01-02T03:12:37.912Z,11.07
2023-01-02T03:15:07.841Z,11.11
2023-01-02T03:18:00.088Z,11.13
2023-01-02T03:20:32.787Z,11.18
2023-01-02T03:23:05.113Z,11.20
2023-01-02T03:25:36.859Z,11.28
2023-01-02T03:28:07.925Z,11.32
2023-01-02T03:30:38.307Z,11.31
2023-01-02T03:33:19.770Z,11.34
2023-01-02T03:35:52.385Z,11.36
2023-01-02T03:38:29.413Z,11.40
2023-01-02T03:41:11.545Z,11.44
2023-01-02T03:43:41.384Z,11.45
2023-01-02T03:46:17.732Z,11.43
2023-01-02T03:48:56.543Z,11.51
2023-01-02T03:51:23.587Z,11.46
2023-01-02T03:53:52.919Z,11.50
2023-01-02T03:56:38.167Z,11.53
2023-01-02T03:59:14.446Z,11.54
2023-01-02T04:01:49.582Z,11.54
2023-01-02T04:04:51.904Z,11.61
2023-01-02T04:07:30.479Z,11.55
2023-01-02T04:10:00.373Z,11.56
2023-01-02T04:12:32.463Z,11.62
2023-01-02T04:15:05.477Z,11.63
2023-01-02T04:17:38.788Z,11.62
2023-01-02T04:20:10.724Z,11.59
2023-01-02T04:22:53.171Z,11.65
2023-01-02T04:25:23.054Z,11.68
2023-01-02T04:28:01.205Z,11.68
2023-01-02T04:30:30.816Z,11.65
2023-01-02T04:33:03.787Z,11.66
2023-01-02T04:35:30.937Z,11.63
2023-01-02T04:38:08.390Z,11.62
2023-01-02T04:40:38.000Z,11.55
2023-01-02T04:43:21.950Z,11.55
2023-01-02T04:45:49.425Z,11.54
2023-01-02T04:48:17.178Z,11.52
2023-01-02T04:50:44.868Z,11.48
2023-01-02T04:53:12.163Z,11.52
2023-01-02T04:55:39.239Z,11.50
2023-01-02T04:58:07.822Z,11.51
2023-01-02T05:00:34.864Z,11.51
2023-01-02T05:03:03.676Z,11.40
2023-01-02T05:05:31.297Z,11.51
2023-01-02T05:07:59.153Z,11.51
2023-01-02T05:10:26.260Z,11.31
2023-01-02T05:12:53.430Z,11.45
2023-01-02T05:15:20.960Z,11.44
2023-01-02T05:17:48.126Z,11.43
2023-01-02T05:20:15.180Z,11.37
2023-01-02T05:23:04.000Z,11.41
2023-01-02T05:25:36.270Z,11.43
2023-01-02T05:28:04.300Z,11.43
2023-01-02T05:30:31.566Z,11.39
2023-01-02T05:32:58.668Z,11.35
2023-01-02T05:35:31.890Z,11.33
2023-01-02T05:38:01.609Z,11.42
2023-01-02T05:40:28.710Z,11.38
2023-01-02T05:42:55.777Z,11.42
2023-01-02T05:45:25.714Z,11.42
2023-01-02T05:47:52.767Z,11.45
2023-01-02T05:50:19.844Z,11.39
2023-01-02T05:52:46.869Z,11.38
2023-01-02T05:55:13.911Z,11.36
2023-01-02T05:57:41.234Z,11.21
2023-01-02T06:00:09.210Z,10.44
2023-01-02T06:02:37.559Z,10.09
2023-01-02T06:05:05.889Z,9.86
2023-01-02T06:07:33.336Z,9.76
2023-01-02T06:10:00.389Z,9.69
2023-01-02T06:12:27.390Z,9.43
2023-01-02T06:14:54.448Z,9.27
2023-01-02T06:17:21.543Z,9.25
2023-01-02T06:19:53.758Z,9.18
2023-01-02T06:22:21.304Z,9.11
2023-01-02T06:24:48.387Z,9.07
2023-01-02T06:27:15.439Z,9.00
2023-01-02T06:29:42.441Z,8.98
2023-01-02T06:32:09.501Z,8.90
2023-01-02T06:34:37.537Z,8.84
2023-01-02T06:37:09.422Z,8.89
2023-01-02T06:39:37.545Z,8.85
2023-01-02T06:42:04.687Z,8.79
2023-01-02T06:44:32.203Z,8.83
2023-01-02T06:46:59.183Z,8.76
2023-01-02T06:49:26.142Z,8.79
2023-01-02T06:51:53.147Z,8.74
2023-01-02T06:54:20.289Z,8.73
2023-01-02T06:56:47.376Z,8.75
2023-01-02T06:59:14.364Z,8.67
2023-01-02T07:01:41.809Z,8.58
2023-01-02T07:04:17.226Z,8.52
2023-01-02T07:06:44.242Z,8.53
2023-01-02T07:09:11.333Z,8.61
2023-01-02T07:11:38.772Z,8.55
2023-01-02T07:14:06.690Z,8.48
2023-01-02T07:16:34.031Z,8.54
2023-01-02T07:19:01.689Z,8.44
2023-01-02T07:21:29.819Z,8.42
2023-01-02T07:23:56.855Z,8.39
2023-01-02T07:26:23.920Z,8.33
2023-01-02T07:28:51.375Z,8.26
2023-01-02T07:31:20.329Z,8.28
2023-01-02T07:33:47.459Z,8.30
2023-01-02T07:36:18.675Z,8.30
2023-01-02T07:38:51.153Z,8.30
2023-01-02T07:41:20.975Z,8.29
2023-01-02T07:43:48.587Z,8.22
2023-01-02T07:46:18.320Z,8.21
2023-01-02T07:48:46.286Z,8.19
2023-01-02T07:51:15.798Z,8.24
2023-01-02T07:53:44.343Z,8.10
2023-01-02T07:56:11.538Z,8.11
2023-01-02T07:58:38.714Z,7.97
2023-01-02T08:01:08.524Z,8.00
2023-01-02T08:03:37.636Z,8.02
2023-01-02T08:06:07.573Z,7.95
2023-01-02T08:08:34.920Z,7.96
2023-01-02T08:11:10.165Z,7.94
2023-01-02T08:13:37.821Z,7.92
2023-01-02T08:16:13.879Z,7.90
2023-01-02T08:18:40.864Z,8.00
2023-01-02T08:21:08.688Z,7.96
2023-01-02T08:23:38.830Z,7.96
2023-01-02T08:26:08.572Z,7.90
2023-01-02T08:28:37.499Z,7.93
2023-01-02T08:31:15.603Z,7.95
2023-01-02T08:33:42.740Z,7.92
2023-01-02T08:36:11.297Z,7.87
2023-01-02T08:38:38.421Z,7.86
2023-01-02T08:41:06.533Z,7.87
2023-01-02T08:43:35.272Z,7.81
2023-01-02T08:46:09.605Z,7.76
2023-01-02T08:48:37.811Z,7.72
2023-01-02T08:51:05.044Z,7.78
2023-01-02T08:53:32.274Z,7.70
2023-01-02T08:56:36.560Z,7.70
2023-01-02T08:59:09.191Z,7.69
2023-01-02T09:01:37.689Z,7.63
2023-01-02T09:04:12.015Z,7.64
2023-01-02T09:06:40.943Z,7.61
2023-01-02T09:09:12.086Z,7.57
2023-01-02T09:11:48.860Z,7.61
2023-01-02T09:14:17.619Z,7.63
2023-01-02T09:16:44.805Z,7.61
2023-01-02T09:19:11.884Z,7.67
2023-01-02T09:21:38.941Z,7.50
2023-01-02T09:24:07.707Z,7.70
2023-01-02T09:26:35.325Z,7.73
2023-01-02T09:29:03.032Z,7.68
2023-01-02T09:31:30.379Z,7.70
2023-01-02T09:33:57.498Z,7.73
2023-01-02T09:36:24.648Z,7.79
2023-01-02T09:38:57.680Z,7.75
2023-01-02T09:41:40.924Z,7.83
2023-01-02T09:44:16.811Z,7.85
2023-01-02T09:47:13.403Z,7.82
2023-01-02T09:49:48.209Z,7.88
2023-01-02T09:52:22.388Z,7.90
2023-01-02T09:54:50.916Z,7.89
2023-01-02T09:57:26.950Z,7.89
2023-01-02T09:59:59.756Z,7.93
2023-01-02T10:02:53.905Z,7.87
2023-01-02T10:05:23.792Z,7.92
2023-01-02T10:08:14.794Z,7.98
2023-01-02T10:10:43.967Z,7.95
2023-01-02T10:13:21.628Z,7.82
2023-01-02T10:15:52.482Z,7.95
2023-01-02T10:18:43.470Z,7.95
2023-01-02T10:21:16.639Z,7.97
2023-01-02T10:23:49.640Z,8.01
2023-01-02T10:26:26.034Z,7.99
2023-01-02T10:29:05.209Z,7.96
2023-01-02T10:31:41.832Z,8.02
2023-01-02T10:34:16.883Z,8.00
2023-01-02T10:36:46.196Z,8.13
2023-01-02T10:39:18.936Z,8.15
2023-01-02T10:41:53.217Z,8.24
2023-01-02T10:44:27.866Z,8.23
2023-01-02T10:46:55.761Z,8.30
2023-01-02T10:49:25.521Z,8.27
2023-01-02T10:52:04.516Z,8.29
2023-01-02T10:54:50.034Z,8.26
2023-01-02T10:57:31.057Z,8.20
2023-01-02T11:00:00.656Z,8.28
2023-01-02T11:02:40.020Z,8.26
2023-01-02T11:05:19.046Z,8.33
2023-01-02T11:07:49.272Z,8.39
2023-01-02T11:10:31.099Z,8.40
2023-01-02T11:13:10.760Z,8.41
2023-01-02T11:15:49.491Z,8.39
2023-01-02T11:18:24.468Z,8.42
2023-01-02T11:20:54.610Z,8.47
2023-01-02T11:23:25.211Z,8.52
2023-01-02T11:25:54.131Z,8.56
2023-01-02T11:28:28.692Z,8.59
2023-01-02T11:31:08.109Z,8.53
2023-01-02T11:33:38.634Z,8.53
2023-01-02T11:36:06.726Z,8.53
2023-01-02T11:38:46.558Z,8.52
2023-01-02T11:42:30.666Z,8.52
2023-01-02T11:45:13.447Z,8.44
2023-01-02T11:47:47.957Z,8.46
2023-01-02T11:50:33.808Z,8.52
2023-01-02T11:53:12.908Z,8.55
2023-01-02T11:55:46.566Z,8.54
2023-01-02T11:58:35.085Z,8.55
2023-01-02T12:01:27.719Z,8.63
2023-01-02T12:03:55.226Z,8.63
2023-01-02T12:06:25.643Z,8.72
2023-01-02T12:09:14.230Z,8.69
2023-01-02T12:12:06.832Z,8.73
2023-01-02T12:14:52.429Z,8.70
2023-01-02T12:18:07.881Z,8.76
2023-01-02T12:20:59.919Z,8.69
2023-01-02T12:23:47.076Z,8.73
2023-01-02T12:26:19.202Z,8.72
2023-01-02T12:29:01.631Z,8.70
2023-01-02T12:31:43.802Z,8.70
2023-01-02T12:34:38.373Z,8.71
2023-01-02T12:37:31.992Z,8.67
2023-01-02T12:40:40.650Z,8.62
2023-01-02T12:43:17.438Z,8.64
2023-01-02T12:46:09.770Z,8.68
2023-01-02T12:48:51.722Z,8.71
2023-01-02T12:51:44.592Z,8.69
2023-01-02T12:54:37.849Z,8.70
2023-01-02T12:57:14.626Z,8.74
2023-01-02T13:00:03.473Z,8.76
2023-01-02T13:02:55.019Z,8.75
2023-01-02T13:05:45.611Z,8.68
2023-01-02T13:08:21.196Z,8.70
2023-01-02T13:10:50.775Z,8.70
2023-01-02T13:13:18.319Z,8.67
2023-01-02T13:15:51.884Z,8.67
2023-01-02T13:18:32.485Z,8.65
2023-01-02T13:21:31.586Z,8.68
2023-01-02T13:23:59.464Z,8.70
2023-01-02T13:26:29.695Z,8.62
2023-01-02T13:29:10.225Z,8.70
2023-01-02T13:31:46.935Z,8.65
2023-01-02T13:34:22.390Z,8.66
2023-01-02T13:36:58.751Z,8.68
2023-01-02T13:39:30.654Z,8.66
2023-01-02T13:42:20.046Z,8.52
2023-01-02T13:44:51.543Z,8.58
2023-01-02T13:47:25.609Z,8.49
2023-01-02T13:50:11.916Z,8.37
2023-01-02T13:52:40.607Z,8.29
2023-01-02T13:55:25.154Z,8.33
2023-01-02T13:58:22.684Z,8.30
2023-01-02T14:00:56.190Z,8.24
2023-01-02T14:03:23.537Z,8.18
2023-01-02T14:05:56.604Z,8.15
2023-01-02T14:09:02.581Z,8.11
2023-01-02T14:11:56.684Z,8.14
2023-01-02T14:14:38.504Z,8.06
2023-01-02T14:17:36.795Z,8.03
2023-01-02T14:20:19.163Z,8.06
2023-01-02T14:22:52.689Z,8.05
2023-01-02T14:25:21.263Z,8.03
2023-01-02T14:27:56.119Z,8.02
2023-01-02T14:30:41.341Z,7.97
2023-01-02T14:33:10.710Z,8.05
2023-01-02T14:35:41.330Z,8.01
2023-01-02T14:38:08.348Z,8.05
2023-01-02T14:40:41.905Z,8.05
2023-01-02T14:43:32.071Z,8.01
2023-01-02T14:46:07.754Z,8.01
2023-01-02T14:48:34.715Z,7.98
2023-01-02T14:51:12.342Z,7.95
2023-01-02T14:53:46.842Z,7.93
2023-01-02T14:56:19.143Z,7.95
2023-01-02T14:58:48.841Z,7.90
2023-01-02T15:01:42.297Z,7.90
2023-01-02T15:04:20.203Z,7.87
2023-01-02T15:07:10.354Z,7.84
2023-01-02T15:09:43.941Z,7.86
2023-01-02T15:12:44.182Z,7.82
2023-01-02T15:15:16.317Z,7.80
2023-01-02T15:17:47.109Z,7.84
2023-01-02T15:20:21.805Z,7.82
2023-01-02T15:22:52.490Z,7.83
2023-01-02T15:25:41.195Z,7.78
2023-01-02T15:28:25.532Z,7.80
2023-01-02T15:31:10.932Z,7.78
2023-01-02T15:33:38.384Z,7.73
2023-01-02T15:36:34.602Z,7.72
2023-01-02T15:39:16.996Z,7.68
2023-01-02T15:41:49.060Z,7.63
2023-01-02T15:44:43.854Z,7.59
2023-01-02T15:47:12.638Z,7.60
2023-01-02T15:49:43.085Z,7.58
2023-01-02T15:52:36.945Z,7.54
2023-01-02T15:55:04.464Z,7.54
2023-01-02T15:57:34.297Z,7.52
2023-01-02T16:00:01.902Z,7.52
2023-01-02T16:02:42.098Z,7.49
2023-01-02T16:05:18.887Z,7.51
2023-01-02T16:07:51.551Z,7.43
2023-01-02T16:10:22.139Z,7.44
2023-01-02T16:12:52.364Z,7.41
2023-01-02T16:15:24.136Z,7.44
2023-01-02T16:17:53.482Z,7.42
2023-01-02T16:20:22.304Z,7.39
2023-01-02T16:22:59.773Z,7.37
2023-01-02T16:25:44.400Z,7.23
2023-01-02T16:28:34.594Z,7.28
2023-01-02T16:31:17.696Z,7.26
2023-01-02T16:33:48.432Z,7.24
2023-01-02T16:36:15.483Z,7.23
2023-01-02T16:39:02.621Z,7.24
2023-01-02T16:41:34.767Z,7.25
2023-01-02T16:44:02.927Z,7.26
2023-01-02T16:46:31.142Z,7.26
2023-01-02T16:49:04.976Z,7.27
2023-01-02T16:51:33.238Z,7.27
2023-01-02T16:54:00.296Z,7.18
2023-01-02T16:56:27.355Z,7.16
2023-01-02T16:58:54.424Z,7.14
2023-01-02T17:01:23.639Z,7.06
2023-01-02T17:03:51.346Z,6.97
2023-01-02T17:06:21.482Z,7.01
2023-01-02T17:08:48.486Z,6.94
2023-01-02T17:11:18.278Z,6.90
2023-01-02T17:13:45.375Z,6.90
2023-01-02T17:16:12.582Z,6.87
2023-01-02T17:18:42.577Z,6.72
2023-01-02T17:21:10.309Z,6.82
2023-01-02T17:23:38.489Z,6.79
2023-01-02T17:26:06.772Z,6.72
2023-01-02T17:28:33.791Z,6.66
2023-01-02T17:31:00.866Z,6.61
2023-01-02T17:33:27.943Z,6.56
2023-01-02T17:35:55.025Z,6.50
2023-01-02T17:38:22.029Z,6.49
2023-01-02T17:40:49.196Z,6.51
2023-01-02T17:43:16.473Z,6.46
2023-01-02T17:45:43.570Z,6.44
2023-01-02T17:48:13.399Z,6.39
2023-01-02T17:50:42.256Z,6.39
2023-01-02T17:53:09.351Z,6.33
2023-01-02T17:55:36.647Z,6.31
2023-01-02T17:58:04.097Z,6.27
2023-01-02T18:00:31.198Z,6.25
2023-01-02T18:02:58.332Z,6.20
2023-01-02T18:05:25.447Z,6.20
2023-01-02T18:07:52.446Z,6.17
2023-01-02T18:10:20.885Z,6.14
2023-01-02T18:12:49.449Z,6.10
2023-01-02T18:15:20.628Z,6.04
2023-01-02T18:17:48.625Z,5.99
2023-01-02T18:20:20.380Z,6.00
2023-01-02T18:22:50.032Z,5.97
2023-01-02T18:25:24.049Z,5.94
2023-01-02T18:27:59.448Z,5.93
2023-01-02T18:30:27.372Z,5.90
2023-01-02T18:33:17.177Z,5.86
2023-01-02T18:36:00.174Z,5.83
2023-01-02T18:38:45.224Z,5.82
2023-01-02T18:41:24.025Z,5.73
2023-01-02T18:43:56.312Z,5.75
2023-01-02T18:47:04.253Z,5.69
2023-01-02T18:49:26.939Z,5.67
2023-01-02T18:52:12.255Z,5.66
2023-01-02T18:54:45.898Z,5.62
2023-01-02T18:57:18.107Z,5.61
2023-01-02T18:59:50.438Z,5.60
2023-01-02T19:02:23.634Z,5.58
2023-01-02T19:04:51.642Z,5.52
2023-01-02T19:07:27.984Z,5.56
2023-01-02T19:10:17.684Z,5.53
2023-01-02T19:13:06.829Z,5.50
2023-01-02T19:15:41.980Z,5.46
2023-01-02T19:18:14.886Z,5.41
2023-01-02T19:20:44.952Z,5.36
2023-01-02T19:23:31.612Z,5.32
2023-01-02T19:26:12.228Z,5.30
2023-01-02T19:28:48.770Z,5.21
2023-01-02T19:31:16.374Z,5.27
2023-01-02T19:33:51.430Z,5.23
2023-01-02T19:36:25.391Z,5.19
2023-01-02T19:38:52.822Z,5.17
2023-01-02T19:41:40.285Z,5.18
2023-01-02T19:44:08.193Z,5.12
2023-01-02T19:46:35.442Z,5.13
2023-01-02T19:49:02.871Z,5.14
2023-01-02T19:51:32.160Z,5.04
2023-01-02T19:54:04.049Z,5.10
2023-01-02T19:56:32.129Z,5.10
2023-01-02T19:59:00.588Z,5.09
2023-01-02T20:01:27.711Z,5.04
2023-01-02T20:03:54.872Z,5.02
2023-01-02T20:06:21.904Z,4.99
2023-01-02T20:08:49.587Z,4.92
2023-01-02T20:11:35.513Z,4.89
2023-01-02T20:14:04.492Z,4.84
2023-01-02T20:16:31.836Z,4.82
2023-01-02T20:18:59.061Z,4.74
2023-01-02T20:21:28.281Z,4.67
2023-01-02T20:23:56.634Z,4.71
2023-01-02T20:26:23.829Z,4.67
2023-01-02T20:28:51.538Z,4.65
2023-01-02T20:31:18.642Z,4.64
2023-01-02T20:33:45.665Z,4.56
2023-01-02T20:36:13.909Z,4.52
2023-01-02T20:38:41.622Z,4.49
2023-01-02T20:41:08.649Z,4.37
2023-01-02T20:43:36.853Z,4.44
2023-01-02T20:46:03.943Z,4.44
2023-01-02T20:48:32.383Z,4.43
2023-01-02T20:50:59.455Z,4.39
2023-01-02T20:53:26.529Z,4.38
2023-01-02T20:55:53.569Z,4.33
2023-01-02T20:58:21.516Z,4.32
2023-01-02T21:00:48.564Z,4.31
2023-01-02T21:03:15.698Z,4.30
2023-01-02T21:05:42.990Z,4.32
2023-01-02T21:08:10.111Z,4.31
2023-01-02T21:10:38.101Z,4.31
2023-01-02T21:13:08.347Z,4.26
2023-01-02T21:15:45.587Z,4.29
2023-01-02T21:18:19.719Z,4.28
2023-01-02T21:20:55.593Z,4.20
2023-01-02T21:23:24.370Z,4.20
2023-01-02T21:25:52.051Z,4.13
2023-01-02T21:28:20.240Z,4.07
2023-01-02T21:30:48.078Z,4.09
2023-01-02T21:33:17.623Z,4.04
2023-01-02T21:35:46.201Z,4.02
2023-01-02T21:38:13.936Z,4.00
2023-01-02T21:40:41.053Z,3.96
2023-01-02T21:43:08.783Z,3.95
2023-01-02T21:45:36.801Z,3.92
2023-01-02T21:48:04.695Z,3.88
2023-01-02T21:50:31.757Z,3.89
2023-01-02T21:52:58.876Z,3.88
2023-01-02T21:55:26.143Z,3.84
2023-01-02T21:58:15.822Z,3.83
2023-01-02T22:00:43.508Z,3.82
2023-01-02T22:03:10.686Z,3.77
2023-01-02T22:05:38.157Z,3.78
2023-01-02T22:08:05.370Z,3.76
2023-01-02T22:10:33.041Z,3.75
2023-01-02T22:13:00.260Z,3.71
2023-01-02T22:15:27.306Z,3.74
2023-01-02T22:17:54.308Z,3.73
2023-01-02T22:20:21.638Z,3.74
2023-01-02T22:22:49.557Z,3.71
2023-01-02T22:25:16.753Z,3.69
2023-01-02T22:27:43.835Z,3.66
2023-01-02T22:30:22.830Z,3.62
2023-01-02T22:32:54.136Z,3.60
2023-01-02T22:35:21.720Z,3.57
2023-01-02T22:37:48.805Z,3.53
2023-01-02T22:40:15.987Z,3.52
2023-01-02T22:43:01.129Z,3.50
2023-01-02T22:45:39.667Z,3.46
2023-01-02T22:48:15.139Z,3.52
2023-01-02T22:50:45.257Z,3.48
2023-01-02T22:53:21.706Z,3.57
2023-01-02T22:55:49.188Z,3.58
2023-01-02T22:58:16.812Z,3.58
2023-01-02T23:00:46.335Z,3.59
2023-01-02T23:03:15.237Z,3.64
2023-01-02T23:05:43.272Z,3.65
2023-01-02T23:08:10.573Z,3.56
2023-01-02T23:10:38.077Z,3.64
2023-01-02T23:13:05.324Z,3.63
2023-01-02T23:15:32.419Z,3.63
2023-01-02T23:18:18.129Z,3.60
2023-01-02T23:20:45.160Z,3.60
2023-01-02T23:23:13.005Z,3.61
2023-01-02T23:25:43.437Z,3.57
2023-01-02T23:28:20.480Z,3.54
2023-01-02T23:30:57.498Z,3.53
2023-01-02T23:33:24.685Z,3.52
2023-01-02T23:35:52.591Z,3.49
2023-01-02T23:38:20.658Z,3.43
2023-01-02T23:40:47.803Z,3.43
2023-01-02T23:43:15.441Z,3.40
2023-01-02T23:45:42.709Z,3.32
2023-01-02T23:48:09.755Z,3.33
2023-01-02T23:50:38.014Z,3.31
2023-01-02T23:53:05.047Z,3.29
2023-01-02T23:55:32.061Z,3.24
2023-01-02T23:57:59.029Z,3.21
